Time;durP1;ratioP1;P1;durP2;ratioP2;P2;SDS_P1;SDS_P2;PMS_P1;PMS_P2;Temp;Humidity;BMP_temperature;BMP_pressure;BME280_temperature;BME280_humidity;BME280_pressure;Samples;Min_cycle;Max_cycle;Signal;HPM_P1;HPM_P2
2023/01/23 04:00:44;;;;;;;;;;;1.30;99.90;;;;;;6082431;23;19924;-68
2023/01/23 04:03:10;;;;;;;;;;;1.30;99.90;;;;;;4974448;28;19977;-71
2023/01/23 04:05:38;;;;;;;;;;;1.30;99.90;;;;;;4978709;28;19926;-71
2023/01/23 04:08:05;;;;;;;;;;;1.20;99.90;;;;;;4979594;28;19976;-72
2023/01/23 04:10:32;;;;;;;;;;;1.30;99.90;;;;;;4979491;28;20020;-72
2023/01/23 04:13:06;;;;;;;;;;;1.20;99.90;;;;;;4957066;28;20420;-72
2023/01/23 04:15:33;;;;;;;;;;;1.20;99.90;;;;;;4960781;28;19933;-70
2023/01/23 04:18:02;;;;;;;;;;;1.20;99.90;;;;;;4960411;28;19926;-71
2023/01/23 04:20:30;;;;;;;;;;;1.20;99.90;;;;;;4958622;28;19997;-70
2023/01/23 04:22:58;;;;;;;;;;;1.20;99.90;;;;;;4958620;28;19927;-71
2023/01/23 04:25:27;;;;;;;;;;;1.20;99.90;;;;;;4965349;28;20024;-70
2023/01/23 04:27:54;;;;;;;;;;;1.20;99.90;;;;;;4959493;28;19927;-71
2023/01/23 04:30:21;;;;;;;;;;;1.30;99.90;;;;;;4959801;28;19970;-71
2023/01/23 04:32:48;;;;;;;;;;;1.30;99.90;;;;;;4995427;23;20400;-68
2023/01/23 04:35:19;;;;;;;;;;;1.30;99.90;;;;;;4980369;28;19933;-69
2023/01/23 04:37:45;;;;;;;;;;;1.30;99.90;;;;;;4975281;28;19926;-69
2023/01/23 04:40:12;;;;;;;;;;;1.30;99.90;;;;;;4989522;28;20308;-69
2023/01/23 04:42:50;;;;;;;;;;;1.40;99.90;;;;;;4979451;28;19927;-69
2023/01/23 04:45:35;;;;;;;;;;;1.40;99.90;;;;;;4974569;28;19929;-69
2023/01/23 04:48:23;;;;;;;;;;;1.40;99.90;;;;;;5002640;28;19973;-67
2023/01/23 04:50:52;;;;;;;;;;;1.40;99.90;;;;;;5001736;28;19932;-68
2023/01/23 04:53:19;;;;;;;;;;;1.40;99.90;;;;;;4985381;28;20396;-69
2023/01/23 04:55:51;;;;;;;;;;;1.40;99.90;;;;;;4997556;28;19933;-69
2023/01/23 04:58:19;;;;;;;;;;;1.40;99.90;;;;;;4983977;28;20329;-67
2023/01/23 05:00:46;;;;;;;;;;;1.30;99.90;;;;;;4986069;28;19926;-68
2023/01/23 05:03:13;;;;;;;;;;;1.30;99.90;;;;;;4999770;28;19927;-69
2023/01/23 05:05:44;;;;;;;;;;;1.20;99.90;;;;;;4999040;28;19925;-68
2023/01/23 05:08:12;;;;;;;;;;;1.20;99.90;;;;;;4993533;28;19933;-70
2023/01/23 05:10:40;;;;;;;;;;;1.10;99.90;;;;;;4980732;28;20017;-68
2023/01/23 05:13:10;;;;;;;;;;;1.00;99.90;;;;;;4980632;28;19926;-68
2023/01/23 05:15:37;;;;;;;;;;;0.90;99.90;;;;;;4978599;28;20400;-67
2023/01/23 05:18:04;;;;;;;;;;;0.90;99.90;;;;;;5001359;28;19953;-68
2023/01/23 05:20:35;;;;;;;;;;;0.90;99.90;;;;;;4985096;28;19933;-68
2023/01/23 05:23:03;;;;;;;;;;;0.90;99.90;;;;;;4997436;28;19984;-69
2023/01/23 05:25:38;;;;;;;;;;;0.90;99.90;;;;;;4985883;28;19926;-68
2023/01/23 05:28:04;;;;;;;;;;;0.80;99.90;;;;;;4983412;28;19926;-69
2023/01/23 05:30:32;;;;;;;;;;;0.80;99.90;;;;;;4976274;28;20029;-69
2023/01/23 05:33:15;;;;;;;;;;;0.90;99.90;;;;;;4988359;28;19934;-68
2023/01/23 05:35:41;;;;;;;;;;;0.90;99.90;;;;;;4978077;28;19933;-69
2023/01/23 05:38:09;;;;;;;;;;;1.00;99.90;;;;;;4985003;28;20397;-69
2023/01/23 05:40:38;;;;;;;;;;;1.00;99.90;;;;;;4981458;28;19926;-74
2023/01/23 05:43:14;;;;;;;;;;;1.00;99.90;;;;;;4977686;28;19926;-69
2023/01/23 05:46:00;;;;;;;;;;;1.00;99.90;;;;;;4963717;28;20306;-69
2023/01/23 05:48:43;;;;;;;;;;;1.10;99.90;;;;;;4967555;28;19926;-69
2023/01/23 05:51:11;;;;;;;;;;;1.10;99.90;;;;;;4985655;28;20357;-68
2023/01/23 05:53:38;;;;;;;;;;;1.10;99.90;;;;;;4999760;28;20399;-68
2023/01/23 05:56:07;;;;;;;;;;;1.10;99.90;;;;;;4980811;28;20412;-69
2023/01/23 05:58:41;;;;;;;;;;;1.10;99.90;;;;;;4976292;28;19925;-68
2023/01/23 06:01:18;;;;;;;;;;;1.10;99.90;;;;;;4977052;28;20303;-70
2023/01/23 06:04:03;;;;;;;;;;;1.10;99.90;;;;;;4958128;28;20077;-69
2023/01/23 06:06:51;;;;;;;;;;;1.20;99.90;;;;;;4981575;28;20462;-69
2023/01/23 06:09:18;;;;;;;;;;;1.20;99.90;;;;;;4969303;28;20340;-68
2023/01/23 06:11:47;;;;;;;;;;;1.20;99.90;;;;;;4979361;28;20396;-68
2023/01/23 06:14:13;;;;;;;;;;;1.20;99.90;;;;;;4984121;28;19965;-69
2023/01/23 06:16:41;;;;;;;;;;;1.10;99.90;;;;;;4989818;28;19926;-69
2023/01/23 06:19:08;;;;;;;;;;;1.20;99.90;;;;;;4983671;28;19985;-69
2023/01/23 06:21:36;;;;;;;;;;;1.20;99.90;;;;;;5001527;28;20374;-69
2023/01/23 06:24:03;;;;;;;;;;;1.20;99.90;;;;;;4997300;28;19984;-67
2023/01/23 06:26:31;;;;;;;;;;;1.20;99.90;;;;;;4976776;28;19926;-68
2023/01/23 06:28:59;;;;;;;;;;;1.10;99.90;;;;;;5000727;28;20412;-68
2023/01/23 06:31:26;;;;;;;;;;;1.20;99.90;;;;;;4983204;28;19926;-68
2023/01/23 06:33:55;;;;;;;;;;;1.20;99.90;;;;;;4993835;28;20032;-70
2023/01/23 06:36:28;;;;;;;;;;;1.20;99.90;;;;;;4993315;28;19933;-69
2023/01/23 06:38:55;;;;;;;;;;;1.20;99.90;;;;;;4975511;28;19934;-69
2023/01/23 06:41:27;;;;;;;;;;;1.20;99.90;;;;;;4979100;28;19930;-69
2023/01/23 06:43:55;;;;;;;;;;;1.20;99.90;;;;;;4996848;28;19926;-70
2023/01/23 06:46:27;;;;;;;;;;;1.20;99.90;;;;;;4999190;28;19926;-70
2023/01/23 06:48:54;;;;;;;;;;;1.20;99.90;;;;;;4977220;28;19926;-69
2023/01/23 06:51:21;;;;;;;;;;;1.20;99.90;;;;;;4979518;28;19972;-68
2023/01/23 06:53:48;;;;;;;;;;;1.20;99.90;;;;;;4997010;28;19930;-69
2023/01/23 06:56:16;;;;;;;;;;;1.20;99.90;;;;;;4996991;28;19926;-68
2023/01/23 06:58:44;;;;;;;;;;;1.20;99.90;;;;;;4979182;28;20286;-69
2023/01/23 07:01:18;;;;;;;;;;;1.20;99.90;;;;;;4969785;28;20386;-70
2023/01/23 07:04:10;;;;;;;;;;;1.20;99.90;;;;;;4978820;28;19933;-69
2023/01/23 07:06:38;;;;;;;;;;;1.20;99.90;;;;;;4992225;28;19926;-70
2023/01/23 07:09:05;;;;;;;;;;;1.20;99.90;;;;;;4993096;28;19933;-68
2023/01/23 07:11:32;;;;;;;;;;;1.20;99.90;;;;;;4976266;28;19955;-69
2023/01/23 07:14:00;;;;;;;;;;;1.20;99.90;;;;;;4980321;28;19972;-69
2023/01/23 07:16:29;;;;;;;;;;;1.10;99.90;;;;;;4997223;28;19965;-71
2023/01/23 07:18:57;;;;;;;;;;;1.10;99.90;;;;;;4999048;28;19926;-68
2023/01/23 07:21:26;;;;;;;;;;;1.10;99.90;;;;;;4997635;28;19926;-70
2023/01/23 07:23:52;;;;;;;;;;;1.20;99.90;;;;;;4975098;28;19969;-69
2023/01/23 07:26:19;;;;;;;;;;;1.10;99.90;;;;;;4993425;28;20281;-70
2023/01/23 07:28:46;;;;;;;;;;;1.20;99.90;;;;;;4976161;28;19926;-69
2023/01/23 07:31:13;;;;;;;;;;;1.20;99.90;;;;;;4995073;28;19926;-70
2023/01/23 07:33:39;;;;;;;;;;;1.20;99.90;;;;;;4976855;28;19929;-70
2023/01/23 07:36:06;;;;;;;;;;;1.20;99.90;;;;;;4970220;28;19930;-69
2023/01/23 07:38:35;;;;;;;;;;;1.20;99.90;;;;;;4979380;28;20282;-70
2023/01/23 07:41:01;;;;;;;;;;;1.20;99.90;;;;;;4995492;28;19988;-67
2023/01/23 07:43:28;;;;;;;;;;;1.20;99.90;;;;;;4978590;28;19984;-69
2023/01/23 07:45:57;;;;;;;;;;;1.20;99.90;;;;;;4992435;28;19934;-69
2023/01/23 07:48:24;;;;;;;;;;;1.20;99.90;;;;;;4999791;28;19925;-70
2023/01/23 07:50:51;;;;;;;;;;;1.20;99.90;;;;;;4991688;28;19926;-69
2023/01/23 07:53:18;;;;;;;;;;;1.20;99.90;;;;;;4978785;28;19929;-69
2023/01/23 07:55:46;;;;;;;;;;;1.20;99.90;;;;;;4978854;28;19988;-70
2023/01/23 07:58:13;;;;;;;;;;;1.30;99.90;;;;;;4980607;28;20417;-68
2023/01/23 08:00:40;;;;;;;;;;;1.40;99.90;;;;;;4998691;28;19926;-69
2023/01/23 08:03:07;;;;;;;;;;;1.40;99.90;;;;;;4986357;28;19926;-69
2023/01/23 08:05:34;;;;;;;;;;;1.40;99.90;;;;;;5003112;28;19926;-68
2023/01/23 08:08:00;;;;;;;;;;;1.40;99.90;;;;;;4984370;28;19926;-68
2023/01/23 08:10:27;;;;;;;;;;;1.40;99.90;;;;;;4985138;28;19926;-69
2023/01/23 08:12:55;;;;;;;;;;;1.40;99.90;;;;;;4998846;28;19926;-69
2023/01/23 08:15:22;;;;;;;;;;;1.50;99.90;;;;;;4981718;28;19926;-69
2023/01/23 08:17:49;;;;;;;;;;;1.50;99.90;;;;;;4986077;28;19933;-69
2023/01/23 08:20:16;;;;;;;;;;;1.50;99.90;;;;;;4985989;28;19930;-68
2023/01/23 08:22:42;;;;;;;;;;;1.50;99.90;;;;;;4983489;28;20427;-69
2023/01/23 08:25:09;;;;;;;;;;;1.60;99.90;;;;;;5001449;28;20009;-69
2023/01/23 08:27:36;;;;;;;;;;;1.60;99.90;;;;;;4981852;28;19969;-69
2023/01/23 08:30:06;;;;;;;;;;;1.70;99.90;;;;;;4999650;28;19980;-70
2023/01/23 08:32:34;;;;;;;;;;;1.70;99.90;;;;;;4981841;28;20012;-68
2023/01/23 08:35:01;;;;;;;;;;;1.70;99.90;;;;;;4983499;28;19981;-70
2023/01/23 08:37:28;;;;;;;;;;;1.70;99.90;;;;;;4998930;28;19929;-69
2023/01/23 08:39:55;;;;;;;;;;;1.70;99.90;;;;;;4995840;28;19926;-70
2023/01/23 08:42:21;;;;;;;;;;;1.80;99.90;;;;;;4997702;28;20368;-70
2023/01/23 08:44:48;;;;;;;;;;;1.80;99.90;;;;;;4991226;28;19926;-69
2023/01/23 08:47:16;;;;;;;;;;;1.80;99.90;;;;;;5000317;28;19934;-69
2023/01/23 08:49:43;;;;;;;;;;;1.80;99.90;;;;;;4997980;28;19980;-67
2023/01/23 08:52:10;;;;;;;;;;;1.90;99.90;;;;;;4981755;28;19932;-69
2023/01/23 08:54:37;;;;;;;;;;;1.90;99.90;;;;;;4983029;28;20356;-69
2023/01/23 08:57:04;;;;;;;;;;;1.90;99.90;;;;;;4984700;28;19926;-70
2023/01/23 08:59:30;;;;;;;;;;;1.90;99.90;;;;;;4995148;28;19926;-70
2023/01/23 09:01:57;;;;;;;;;;;1.90;99.90;;;;;;4999575;28;19926;-69
2023/01/23 09:04:25;;;;;;;;;;;1.90;99.90;;;;;;4999812;28;19933;-70
2023/01/23 09:06:52;;;;;;;;;;;2.00;99.90;;;;;;4984619;28;19926;-70
2023/01/23 09:09:18;;;;;;;;;;;2.00;99.90;;;;;;4980903;28;19933;-69
2023/01/23 09:11:46;;;;;;;;;;;2.00;99.90;;;;;;4977590;28;19932;-69
2023/01/23 09:14:13;;;;;;;;;;;2.00;99.90;;;;;;4979989;28;19926;-69
2023/01/23 09:16:40;;;;;;;;;;;2.10;99.90;;;;;;4978176;28;19926;-69
2023/01/23 09:19:09;;;;;;;;;;;2.10;99.90;;;;;;4982826;28;20317;-69
2023/01/23 09:21:37;;;;;;;;;;;2.20;99.90;;;;;;4998143;28;20013;-69
2023/01/23 09:24:04;;;;;;;;;;;2.20;99.90;;;;;;4983647;28;19926;-69
2023/01/23 09:26:31;;;;;;;;;;;2.20;99.90;;;;;;4995984;28;20407;-70
2023/01/23 09:28:57;;;;;;;;;;;2.30;99.90;;;;;;5002085;28;19926;-69
2023/01/23 09:31:24;;;;;;;;;;;2.30;99.90;;;;;;4983487;28;19930;-69
2023/01/23 09:33:51;;;;;;;;;;;2.30;99.90;;;;;;4984132;28;19934;-70
2023/01/23 09:36:18;;;;;;;;;;;2.40;99.90;;;;;;4996606;28;19933;-69
2023/01/23 09:38:47;;;;;;;;;;;2.40;99.90;;;;;;4977554;28;19925;-69
2023/01/23 09:41:16;;;;;;;;;;;2.50;99.90;;;;;;4983608;28;19933;-69
2023/01/23 09:43:47;;;;;;;;;;;2.50;99.90;;;;;;4981958;28;19930;-67
2023/01/23 09:46:18;;;;;;;;;;;2.50;99.90;;;;;;4996340;28;19934;-69
2023/01/23 09:48:45;;;;;;;;;;;2.60;99.90;;;;;;4982155;28;20413;-69
2023/01/23 09:51:14;;;;;;;;;;;2.60;99.90;;;;;;4997035;28;20368;-70
2023/01/23 09:53:41;;;;;;;;;;;2.70;99.90;;;;;;4980299;28;20456;-69
2023/01/23 09:56:17;;;;;;;;;;;2.80;99.90;;;;;;5000555;28;19980;-69
2023/01/23 09:58:47;;;;;;;;;;;2.80;99.90;;;;;;4982675;28;19938;-69
2023/01/23 10:01:14;;;;;;;;;;;2.90;99.90;;;;;;4995169;28;19926;-71
2023/01/23 10:03:41;;;;;;;;;;;3.00;99.90;;;;;;4981972;28;19926;-69
2023/01/23 10:06:15;;;;;;;;;;;3.00;99.90;;;;;;4997741;28;19941;-69
2023/01/23 10:08:48;;;;;;;;;;;3.00;99.90;;;;;;4995998;28;20320;-69
2023/01/23 10:11:22;;;;;;;;;;;3.10;99.90;;;;;;4996397;28;19941;-69
2023/01/23 10:13:54;;;;;;;;;;;3.10;99.90;;;;;;4980524;28;20355;-70
2023/01/23 10:16:29;;;;;;;;;;;3.20;99.90;;;;;;4993289;28;19973;-70
2023/01/23 10:19:02;;;;;;;;;;;3.20;99.90;;;;;;4992809;28;19934;-68
2023/01/23 10:21:33;;;;;;;;;;;3.40;99.90;;;;;;4979403;28;19926;-68
2023/01/23 10:24:03;;;;;;;;;;;3.40;99.90;;;;;;4994387;28;19926;-70
2023/01/23 10:26:34;;;;;;;;;;;3.50;99.90;;;;;;4980469;28;19926;-70
2023/01/23 10:29:02;;;;;;;;;;;3.60;99.90;;;;;;4989859;28;20393;-69
2023/01/23 10:31:33;;;;;;;;;;;3.60;99.90;;;;;;4978759;28;20293;-69
2023/01/23 10:34:04;;;;;;;;;;;3.70;99.90;;;;;;4979336;28;19989;-69
2023/01/23 10:36:34;;;;;;;;;;;3.70;99.90;;;;;;4982544;28;19926;-68
2023/01/23 10:39:03;;;;;;;;;;;3.70;99.90;;;;;;4980776;28;19976;-69
2023/01/23 10:41:32;;;;;;;;;;;3.70;99.90;;;;;;4996895;28;19939;-69
2023/01/23 10:43:59;;;;;;;;;;;3.70;99.90;;;;;;4986572;28;19973;-80
2023/01/23 10:46:29;;;;;;;;;;;3.70;99.90;;;;;;4964886;28;20413;-69
2023/01/23 10:48:56;;;;;;;;;;;3.70;99.90;;;;;;4972941;28;20409;-66
2023/01/23 10:51:26;;;;;;;;;;;3.70;99.90;;;;;;4972175;28;19926;-68
2023/01/23 10:54:00;;;;;;;;;;;3.80;99.90;;;;;;4980034;28;19930;-66
2023/01/23 10:56:28;;;;;;;;;;;3.80;99.90;;;;;;4970384;28;19972;-67
2023/01/23 10:58:56;;;;;;;;;;;3.80;99.90;;;;;;4979902;28;19985;-68
2023/01/23 11:01:25;;;;;;;;;;;3.80;99.90;;;;;;4980139;28;20274;-69
2023/01/23 11:03:51;;;;;;;;;;;3.80;99.90;;;;;;4979598;28;20464;-69
2023/01/23 11:06:20;;;;;;;;;;;3.80;99.90;;;;;;4990484;28;20360;-69
2023/01/23 11:08:50;;;;;;;;;;;3.80;99.90;;;;;;4981101;28;19926;-69
2023/01/23 11:11:19;;;;;;;;;;;3.80;99.90;;;;;;4980766;28;19926;-68
2023/01/23 11:13:47;;;;;;;;;;;3.80;99.90;;;;;;4975640;28;19933;-69
2023/01/23 11:16:16;;;;;;;;;;;3.80;99.90;;;;;;4980494;28;19961;-69
2023/01/23 11:18:44;;;;;;;;;;;3.90;99.90;;;;;;4970028;28;19977;-69
2023/01/23 11:21:20;;;;;;;;;;;3.90;99.90;;;;;;4991387;28;20317;-69
2023/01/23 11:23:47;;;;;;;;;;;4.00;99.90;;;;;;4982051;28;20017;-69
2023/01/23 11:26:28;;;;;;;;;;;4.00;99.90;;;;;;4970887;28;19945;-69
2023/01/23 11:28:55;;;;;;;;;;;4.10;99.90;;;;;;4967928;28;19926;-69
2023/01/23 11:31:25;;;;;;;;;;;4.10;99.90;;;;;;4991888;28;19942;-70
2023/01/23 11:33:55;;;;;;;;;;;4.10;99.90;;;;;;4969801;28;19981;-69
2023/01/23 11:36:29;;;;;;;;;;;4.20;99.90;;;;;;4969462;28;19925;-70
2023/01/23 11:39:00;;;;;;;;;;;4.20;99.90;;;;;;4972491;28;19930;-69
2023/01/23 11:41:29;;;;;;;;;;;4.20;99.90;;;;;;4970380;28;19933;-68
2023/01/23 11:43:56;;;;;;;;;;;4.30;99.90;;;;;;4970481;28;19937;-70
2023/01/23 11:46:35;;;;;;;;;;;4.40;99.90;;;;;;4992803;28;20356;-69
2023/01/23 11:49:16;;;;;;;;;;;4.40;99.90;;;;;;4973296;28;19926;-69
2023/01/23 11:51:46;;;;;;;;;;;4.40;99.90;;;;;;4966672;28;20269;-68
2023/01/23 11:54:22;;;;;;;;;;;4.20;99.90;;;;;;4980665;28;19931;-69
2023/01/23 11:56:56;;;;;;;;;;;4.30;99.90;;;;;;4971118;28;19931;-69
2023/01/23 11:59:31;;;;;;;;;;;4.30;99.90;;;;;;4977040;28;20380;-69
2023/01/23 12:02:08;;;;;;;;;;;4.20;99.90;;;;;;4958144;28;20385;-69
2023/01/23 12:04:55;;;;;;;;;;;4.30;99.90;;;;;;4994262;28;19948;-69
2023/01/23 12:07:23;;;;;;;;;;;4.40;99.90;;;;;;4972415;28;20352;-69
2023/01/23 12:09:58;;;;;;;;;;;4.50;99.90;;;;;;4994586;28;19930;-70
2023/01/23 12:12:32;;;;;;;;;;;4.50;99.90;;;;;;4977231;28;19925;-69
2023/01/23 12:15:03;;;;;;;;;;;4.40;99.90;;;;;;4987660;28;19926;-70
2023/01/23 12:17:36;;;;;;;;;;;4.40;99.90;;;;;;4962586;28;19927;-69
2023/01/23 12:20:19;;;;;;;;;;;4.40;99.90;;;;;;4977170;28;19929;-69
2023/01/23 12:22:53;;;;;;;;;;;4.40;99.90;;;;;;4963237;28;19981;-69
2023/01/23 12:25:23;;;;;;;;;;;4.20;99.90;;;;;;4978917;28;19926;-70
2023/01/23 12:27:56;;;;;;;;;;;4.30;99.90;;;;;;4994539;28;19931;-69
2023/01/23 12:30:37;;;;;;;;;;;4.30;99.90;;;;;;4984769;28;20485;-69
2023/01/23 12:33:18;;;;;;;;;;;4.30;99.90;;;;;;4980517;28;19969;-69
2023/01/23 12:35:50;;;;;;;;;;;4.30;99.90;;;;;;4999226;28;20392;-70
2023/01/23 12:38:26;;;;;;;;;;;4.30;99.90;;;;;;4982336;28;20423;-68
2023/01/23 12:40:56;;;;;;;;;;;4.40;99.90;;;;;;4989161;28;19926;-69
2023/01/23 12:43:28;;;;;;;;;;;4.40;99.90;;;;;;4967306;28;19926;-69
2023/01/23 12:45:58;;;;;;;;;;;4.50;99.90;;;;;;4970247;28;19926;-70
2023/01/23 12:48:29;;;;;;;;;;;4.50;99.90;;;;;;4986396;28;19925;-70
2023/01/23 12:50:57;;;;;;;;;;;4.50;99.90;;;;;;4996064;23;20249;-70
2023/01/23 12:53:25;;;;;;;;;;;4.60;99.90;;;;;;4991637;28;19932;-72
2023/01/23 12:55:55;;;;;;;;;;;4.50;99.90;;;;;;4999850;28;19925;-71
2023/01/23 12:58:23;;;;;;;;;;;4.50;99.90;;;;;;4992196;28;19976;-71
2023/01/23 13:00:56;;;;;;;;;;;4.50;99.90;;;;;;4990839;28;19937;-71
2023/01/23 13:03:33;;;;;;;;;;;4.40;99.90;;;;;;4991016;28;20030;-72
2023/01/23 13:06:07;;;;;;;;;;;4.40;99.90;;;;;;4975302;28;20032;-73
2023/01/23 13:08:36;;;;;;;;;;;4.30;99.90;;;;;;4995769;28;20013;-72
2023/01/23 13:13:50;;;;;;;;;;;4.40;99.90;;;;;;4976496;28;19926;-72
2023/01/23 13:16:17;;;;;;;;;;;4.50;99.90;;;;;;4977536;28;20400;-72
2023/01/23 13:27:38;;;;;;;;;;;4.40;99.90;;;;;;4981796;28;19976;-71
2023/01/23 13:30:30;;;;;;;;;;;4.50;99.90;;;;;;4980816;28;19930;-72
2023/01/23 13:32:59;;;;;;;;;;;4.50;99.90;;;;;;4978065;28;19926;-72
2023/01/23 13:35:54;;;;;;;;;;;4.60;99.90;;;;;;5000445;28;19969;-72
2023/01/23 13:38:36;;;;;;;;;;;4.50;99.90;;;;;;4973884;28;19930;-70
2023/01/23 13:41:21;;;;;;;;;;;4.50;99.90;;;;;;4987527;28;19926;-71
2023/01/23 13:43:52;;;;;;;;;;;4.50;99.90;;;;;;4979102;28;19934;-72
2023/01/23 13:46:26;;;;;;;;;;;4.60;99.90;;;;;;4996400;28;19926;-70
2023/01/23 13:51:56;;;;;;;;;;;4.60;99.90;;;;;;4922854;29;19923;-70
2023/01/23 13:57:10;;;;;;;;;;;4.50;99.90;;;;;;4980538;28;19932;-69
2023/01/23 13:59:39;;;;;;;;;;;4.50;99.90;;;;;;4982686;28;19926;-69
2023/01/23 14:05:15;;;;;;;;;;;4.30;99.90;;;;;;4974540;28;19922;-69
2023/01/23 14:07:44;;;;;;;;;;;4.30;99.90;;;;;;4981226;28;20017;-70
2023/01/23 14:10:22;;;;;;;;;;;4.20;99.90;;;;;;4985196;28;20404;-69
2023/01/23 14:12:49;;;;;;;;;;;4.20;99.90;;;;;;4997262;28;20020;-73
2023/01/23 14:18:15;;;;;;;;;;;4.10;99.90;;;;;;4977751;28;19933;-70
2023/01/23 14:20:42;;;;;;;;;;;4.00;99.90;;;;;;4981457;28;19997;-71
2023/01/23 14:23:17;;;;;;;;;;;3.90;99.90;;;;;;4997841;28;19930;-73
2023/01/23 14:25:44;;;;;;;;;;;3.80;99.90;;;;;;4982484;28;19937;-72
2023/01/23 14:28:14;;;;;;;;;;;3.80;99.90;;;;;;4994882;28;20289;-71
2023/01/23 14:30:41;;;;;;;;;;;3.80;99.90;;;;;;4986444;28;19965;-73
2023/01/23 14:33:10;;;;;;;;;;;3.80;99.90;;;;;;4977268;28;20040;-72
2023/01/23 14:35:38;;;;;;;;;;;3.80;99.90;;;;;;4983019;28;19976;-72
2023/01/23 14:38:06;;;;;;;;;;;3.70;99.90;;;;;;4981992;28;19933;-72
2023/01/23 14:40:35;;;;;;;;;;;3.70;99.90;;;;;;4978921;28;19925;-72
2023/01/23 14:43:03;;;;;;;;;;;3.80;99.90;;;;;;4983113;28;19926;-71
2023/01/23 14:45:31;;;;;;;;;;;3.70;99.90;;;;;;4979387;28;19953;-72
2023/01/23 14:47:57;;;;;;;;;;;3.70;99.90;;;;;;4994080;28;19926;-72
2023/01/23 14:50:26;;;;;;;;;;;3.70;99.90;;;;;;4977683;28;19981;-73
2023/01/23 14:52:57;;;;;;;;;;;3.60;99.90;;;;;;4977062;28;20398;-73
2023/01/23 14:55:24;;;;;;;;;;;3.60;99.90;;;;;;4980751;28;19955;-72
2023/01/23 14:57:54;;;;;;;;;;;3.60;99.90;;;;;;4993709;28;20336;-71
2023/01/23 15:00:22;;;;;;;;;;;3.50;99.90;;;;;;4982400;28;19926;-73
2023/01/23 15:02:49;;;;;;;;;;;3.40;99.90;;;;;;4976660;28;19977;-71
2023/01/23 15:05:18;;;;;;;;;;;3.40;99.90;;;;;;4979088;28;19926;-72
2023/01/23 15:07:46;;;;;;;;;;;3.40;99.90;;;;;;4995961;28;19926;-72
2023/01/23 15:10:14;;;;;;;;;;;3.40;99.90;;;;;;4994579;28;19933;-72
2023/01/23 15:12:47;;;;;;;;;;;3.30;99.90;;;;;;4979347;28;19997;-72
2023/01/23 15:15:17;;;;;;;;;;;3.40;99.90;;;;;;4991123;28;19949;-72
2023/01/23 15:17:44;;;;;;;;;;;3.30;99.90;;;;;;4971362;28;19981;-73
2023/01/23 15:20:26;;;;;;;;;;;3.20;99.90;;;;;;4977571;28;19930;-72
2023/01/23 15:22:53;;;;;;;;;;;3.20;99.90;;;;;;4974921;28;20459;-71
2023/01/23 15:25:27;;;;;;;;;;;3.20;99.90;;;;;;4976908;28;19929;-70
2023/01/23 15:27:54;;;;;;;;;;;3.10;99.90;;;;;;4971501;28;19926;-73
2023/01/23 15:30:42;;;;;;;;;;;3.10;99.90;;;;;;4961377;28;21878;-70
2023/01/23 15:33:23;;;;;;;;;;;3.10;99.90;;;;;;4971939;28;19926;-72
2023/01/23 15:35:50;;;;;;;;;;;3.10;99.90;;;;;;4987503;28;20404;-71
2023/01/23 15:38:17;;;;;;;;;;;3.10;99.90;;;;;;4994365;28;19977;-71
2023/01/23 15:40:44;;;;;;;;;;;3.10;99.90;;;;;;4992167;28;19926;-70
2023/01/23 15:43:11;;;;;;;;;;;3.10;99.90;;;;;;4978452;28;19934;-71
2023/01/23 15:45:38;;;;;;;;;;;3.00;99.90;;;;;;4979665;28;19926;-72
2023/01/23 15:48:07;;;;;;;;;;;3.00;99.90;;;;;;4996440;28;19980;-71
2023/01/23 15:50:34;;;;;;;;;;;2.90;99.90;;;;;;4994524;28;20464;-72
2023/01/23 15:53:01;;;;;;;;;;;2.90;99.90;;;;;;4997542;28;20446;-71
2023/01/23 15:55:28;;;;;;;;;;;2.90;99.90;;;;;;4987797;28;19989;-69
2023/01/23 15:57:55;;;;;;;;;;;2.90;99.90;;;;;;4972601;28;19965;-72
2023/01/23 16:00:24;;;;;;;;;;;2.80;99.90;;;;;;4987762;28;20396;-72
2023/01/23 16:02:51;;;;;;;;;;;2.80;99.90;;;;;;4973211;28;19930;-70
2023/01/23 16:05:20;;;;;;;;;;;2.80;99.90;;;;;;4972406;28;19926;-72
2023/01/23 16:07:47;;;;;;;;;;;2.70;99.90;;;;;;4977681;28;19997;-73
2023/01/23 16:10:17;;;;;;;;;;;2.70;99.90;;;;;;4986270;28;19934;-71
2023/01/23 16:12:45;;;;;;;;;;;2.70;99.90;;;;;;4968936;28;19966;-71
2023/01/23 16:15:14;;;;;;;;;;;2.70;99.90;;;;;;4977034;28;19926;-71
2023/01/23 16:17:40;;;;;;;;;;;2.70;99.90;;;;;;4994356;28;19981;-73
2023/01/23 16:20:09;;;;;;;;;;;2.70;99.90;;;;;;4977761;28;20000;-71
2023/01/23 16:22:37;;;;;;;;;;;2.60;99.90;;;;;;4997075;28;19933;-69
2023/01/23 16:25:04;;;;;;;;;;;2.60;99.90;;;;;;4973549;28;20393;-71
2023/01/23 16:27:31;;;;;;;;;;;2.60;99.90;;;;;;4991061;28;19947;-71
2023/01/23 16:29:57;;;;;;;;;;;2.60;99.90;;;;;;4972820;28;19978;-71
2023/01/23 16:32:24;;;;;;;;;;;2.60;99.90;;;;;;4979354;28;19925;-70
2023/01/23 16:34:51;;;;;;;;;;;2.60;99.90;;;;;;5004036;28;19926;-70
2023/01/23 16:37:18;;;;;;;;;;;2.60;99.90;;;;;;4994371;28;19934;-71
2023/01/23 16:39:47;;;;;;;;;;;2.50;99.90;;;;;;4979332;28;19926;-71
2023/01/23 16:42:19;;;;;;;;;;;2.50;99.90;;;;;;4983157;28;19926;-72
2023/01/23 16:44:46;;;;;;;;;;;2.50;99.90;;;;;;4988183;28;19926;-72
2023/01/23 16:47:13;;;;;;;;;;;2.40;99.90;;;;;;4988842;28;19926;-72
2023/01/23 16:49:40;;;;;;;;;;;2.40;99.90;;;;;;4976098;28;19930;-72
2023/01/23 16:52:07;;;;;;;;;;;2.30;99.90;;;;;;4980368;28;19981;-71
2023/01/23 16:57:13;;;;;;;;;;;2.30;99.90;;;;;;4978983;23;19941;-68
2023/01/23 16:59:40;;;;;;;;;;;2.30;99.90;;;;;;5002175;28;19984;-69
2023/01/23 17:02:15;;;;;;;;;;;2.30;99.90;;;;;;5002822;28;19929;-69
2023/01/23 17:04:41;;;;;;;;;;;2.30;99.90;;;;;;4996251;28;19964;-69
2023/01/23 17:07:11;;;;;;;;;;;2.30;99.90;;;;;;5005833;28;19930;-68
2023/01/23 17:09:38;;;;;;;;;;;2.30;99.90;;;;;;5017561;28;19925;-69
2023/01/23 17:12:06;;;;;;;;;;;2.30;99.90;;;;;;5022611;28;19926;-68
2023/01/23 17:14:35;;;;;;;;;;;2.30;99.90;;;;;;5005962;28;19932;-74
2023/01/23 17:17:04;;;;;;;;;;;2.30;99.90;;;;;;5004976;28;19926;-68
2023/01/23 17:19:33;;;;;;;;;;;2.40;99.90;;;;;;5001735;28;19926;-73
2023/01/23 17:22:01;;;;;;;;;;;2.40;99.90;;;;;;4992966;28;19933;-68
2023/01/23 17:24:28;;;;;;;;;;;2.40;99.90;;;;;;5001674;28;19929;-67
2023/01/23 17:26:57;;;;;;;;;;;2.40;99.90;;;;;;5001941;28;19925;-69
2023/01/23 17:29:24;;;;;;;;;;;2.30;99.90;;;;;;5002579;28;20016;-69
2023/01/23 17:31:52;;;;;;;;;;;2.40;99.90;;;;;;4999671;28;19930;-68
2023/01/23 17:34:21;;;;;;;;;;;2.30;99.90;;;;;;4998943;28;20301;-67
2023/01/23 17:36:48;;;;;;;;;;;2.30;99.90;;;;;;5004738;28;19925;-73
2023/01/23 17:39:15;;;;;;;;;;;2.30;99.90;;;;;;5003506;28;20017;-74
2023/01/23 17:41:42;;;;;;;;;;;2.30;99.90;;;;;;5010878;28;20296;-74
2023/01/23 17:44:09;;;;;;;;;;;2.30;99.90;;;;;;5004330;28;20371;-73
2023/01/23 17:46:38;;;;;;;;;;;2.30;99.90;;;;;;5015408;28;19926;-74
2023/01/23 17:49:17;;;;;;;;;;;2.30;99.90;;;;;;5010779;28;19952;-73
2023/01/23 17:51:44;;;;;;;;;;;2.30;99.90;;;;;;4998259;28;19929;-73
2023/01/23 17:54:17;;;;;;;;;;;2.20;99.90;;;;;;4998272;28;20466;-75
2023/01/23 17:56:43;;;;;;;;;;;2.20;99.90;;;;;;5003014;28;19984;-74
2023/01/23 17:59:10;;;;;;;;;;;2.20;99.90;;;;;;5001358;28;19930;-75
2023/01/23 18:01:37;;;;;;;;;;;2.20;99.90;;;;;;5001819;28;19925;-76
2023/01/23 18:04:10;;;;;;;;;;;2.30;99.90;;;;;;4999898;28;20372;-74
2023/01/23 18:06:37;;;;;;;;;;;2.30;99.90;;;;;;4997430;28;19980;-71
2023/01/23 18:09:04;;;;;;;;;;;2.30;99.90;;;;;;4996447;28;20377;-72
2023/01/23 18:11:32;;;;;;;;;;;2.30;99.90;;;;;;5004447;28;19979;-71
2023/01/23 18:14:16;;;;;;;;;;;2.30;99.90;;;;;;5019020;28;19957;-68
2023/01/23 18:16:44;;;;;;;;;;;2.30;99.90;;;;;;5000389;28;19926;-70
2023/01/23 18:19:17;;;;;;;;;;;2.30;99.90;;;;;;5019157;28;19930;-70
2023/01/23 18:21:44;;;;;;;;;;;2.30;99.90;;;;;;5011618;28;19926;-70
2023/01/23 18:24:17;;;;;;;;;;;2.30;99.90;;;;;;5018243;28;20340;-70
2023/01/23 18:26:46;;;;;;;;;;;2.30;99.90;;;;;;5020208;28;19929;-70
2023/01/23 18:29:23;;;;;;;;;;;2.30;99.90;;;;;;4998158;28;19933;-73
2023/01/23 18:32:08;;;;;;;;;;;2.20;99.90;;;;;;5000390;28;19929;-67
2023/01/23 18:34:41;;;;;;;;;;;2.20;99.90;;;;;;4997409;28;19930;-72
2023/01/23 18:37:14;;;;;;;;;;;2.20;99.90;;;;;;4996949;28;19933;-73
2023/01/23 18:39:58;;;;;;;;;;;2.20;99.90;;;;;;5000529;28;19933;-70
2023/01/23 18:42:29;;;;;;;;;;;2.20;99.90;;;;;;4999442;28;19925;-70
2023/01/23 18:44:58;;;;;;;;;;;2.20;99.90;;;;;;4997340;28;20401;-71
2023/01/23 18:47:25;;;;;;;;;;;2.20;99.90;;;;;;4996955;28;19929;-70
2023/01/23 18:49:53;;;;;;;;;;;2.20;99.90;;;;;;5008904;28;19976;-72
2023/01/23 18:52:23;;;;;;;;;;;2.20;99.90;;;;;;5007703;28;19929;-70
2023/01/23 18:54:54;;;;;;;;;;;2.20;99.90;;;;;;5006719;28;20019;-70
2023/01/23 18:57:32;;;;;;;;;;;2.20;99.90;;;;;;4999049;28;19933;-71
2023/01/23 19:00:03;;;;;;;;;;;2.20;99.90;;;;;;4996525;28;19979;-70
2023/01/23 19:02:33;;;;;;;;;;;2.20;99.90;;;;;;4997989;28;19926;-70
2023/01/23 19:05:09;;;;;;;;;;;2.20;99.90;;;;;;5011877;28;20025;-71
2023/01/23 19:07:37;;;;;;;;;;;2.20;99.90;;;;;;4999689;28;19957;-70
2023/01/23 19:10:04;;;;;;;;;;;2.20;99.90;;;;;;5004013;28;19926;-71
2023/01/23 19:12:36;;;;;;;;;;;2.20;99.90;;;;;;4998606;28;19929;-71